createdAt,value
2023-03-01T00:01:41.399Z,101292.31
2023-03-01T00:04:09.061Z,101283.56
2023-03-01T00:06:36.849Z,101275.75
2023-03-01T00:09:04.691Z,101274.91
2023-03-01T00:11:32.300Z,101274.13
2023-03-01T00:14:00.041Z,101268.06
2023-03-01T00:16:27.811Z,101269.03
2023-03-01T00:18:55.824Z,101268.19
2023-03-01T00:21:24.234Z,101263.03
2023-03-01T00:23:51.880Z,101262.19
2023-03-01T00:26:19.544Z,101262.22
2023-03-01T00:28:47.313Z,101268.28
2023-03-01T00:31:15.012Z,101259.56
2023-03-01T00:33:43.006Z,101261.34
2023-03-01T00:36:10.738Z,101265.72
2023-03-01T00:38:38.715Z,101258.75
2023-03-01T00:41:06.748Z,101244.00
2023-03-01T00:43:37.712Z,101249.22
2023-03-01T00:46:06.321Z,101248.38
2023-03-01T00:48:33.962Z,101252.75
2023-03-01T00:51:01.682Z,101250.13
2023-03-01T00:53:29.304Z,101246.66
2023-03-01T00:55:56.875Z,101244.91
2023-03-01T00:58:24.813Z,101237.09
2023-03-01T01:00:52.432Z,101244.03
2023-03-01T01:03:20.317Z,101232.72
2023-03-01T01:05:47.976Z,101231.00
2023-03-01T01:11:36.484Z,101224.94
2023-03-01T01:14:04.109Z,101221.47
2023-03-01T01:16:32.154Z,101214.53
2023-03-01T01:18:59.921Z,101216.28
2023-03-01T01:21:28.100Z,101218.03
2023-03-01T01:23:56.345Z,101217.16
2023-03-01T01:26:24.154Z,101217.16
2023-03-01T01:28:51.786Z,101211.94
2023-03-01T01:31:19.415Z,101210.25
2023-03-01T01:33:47.047Z,101215.47
2023-03-01T01:36:14.810Z,101219.00
2023-03-01T01:38:43.516Z,101212.06
2023-03-01T01:41:12.487Z,101219.03
2023-03-01T01:43:40.210Z,101224.28
2023-03-01T01:46:08.145Z,101218.22
2023-03-01T01:48:41.868Z,101227.78
2023-03-01T01:51:09.687Z,101220.00
2023-03-01T01:53:37.414Z,101213.06
2023-03-01T01:56:05.027Z,101196.56
2023-03-01T01:58:32.620Z,101203.53
2023-03-01T02:01:02.379Z,101206.19
2023-03-01T02:03:30.586Z,101199.25
2023-03-01T02:05:58.247Z,101192.28
2023-03-01T02:08:26.139Z,101194.03
2023-03-01T02:10:53.767Z,101184.47
2023-03-01T02:13:21.541Z,101191.47
2023-03-01T02:15:49.384Z,101190.63
2023-03-01T02:18:17.065Z,101189.72
2023-03-01T02:20:44.640Z,101186.28
2023-03-01T02:23:12.247Z,101190.66
2023-03-01T02:25:40.253Z,101189.78
2023-03-01T02:28:08.837Z,101174.19
2023-03-01T02:30:36.412Z,101186.38
2023-03-01T02:33:04.082Z,101182.94
2023-03-01T02:35:31.791Z,101178.59
2023-03-01T02:38:02.261Z,101184.69
2023-03-01T02:40:30.313Z,101186.41
2023-03-01T02:42:57.901Z,101182.06
2023-03-01T02:45:25.471Z,101189.88
2023-03-01T02:47:53.080Z,101195.06
2023-03-01T02:50:21.084Z,101188.09
2023-03-01T02:52:49.962Z,101192.47
2023-03-01T02:55:17.653Z,101188.13
2023-03-01T02:57:45.222Z,101182.03
2023-03-01T03:00:20.200Z,101172.50
2023-03-01T03:02:48.266Z,101174.25
2023-03-01T03:05:16.064Z,101176.00
2023-03-01T03:07:43.658Z,101174.28
2023-03-01T03:10:12.328Z,101167.38
2023-03-01T03:12:39.917Z,101164.81
2023-03-01T03:15:10.237Z,101173.50
2023-03-01T03:17:37.892Z,101167.44
2023-03-01T03:20:06.092Z,101165.72
2023-03-01T03:22:35.076Z,101174.44
2023-03-01T03:25:02.644Z,101170.94
2023-03-01T03:27:30.613Z,101166.63
2023-03-01T03:29:58.582Z,101178.81
2023-03-01T03:32:26.319Z,101182.28
2023-03-01T03:34:53.939Z,101166.66
2023-03-01T03:37:35.985Z,101166.69
2023-03-01T03:40:04.177Z,101157.13
2023-03-01T03:42:31.769Z,101156.28
2023-03-01T03:44:59.408Z,101147.63
2023-03-01T03:47:26.983Z,101146.78
2023-03-01T03:49:54.988Z,101136.38
2023-03-01T03:52:22.645Z,101132.03
2023-03-01T03:54:50.266Z,101138.97
2023-03-01T03:57:17.862Z,101132.91
2023-03-01T03:59:45.493Z,101125.09
2023-03-01T04:02:13.536Z,101125.09
2023-03-01T04:04:41.117Z,101134.66
2023-03-01T04:07:08.715Z,101138.97
2023-03-01T04:09:36.278Z,101144.22
2023-03-01T04:12:03.873Z,101146.84
2023-03-01T04:14:31.865Z,101145.13
2023-03-01T04:16:59.470Z,101146.03
2023-03-01T04:19:28.108Z,101148.63
2023-03-01T04:21:55.739Z,101147.78
2023-03-01T04:24:24.016Z,101146.03
2023-03-01T04:26:52.024Z,101146.91
2023-03-01T04:29:19.874Z,101149.50
2023-03-01T04:31:47.511Z,101159.06
2023-03-01T04:34:15.215Z,101154.69
2023-03-01T04:36:42.928Z,101143.44
2023-03-01T04:39:13.660Z,101137.41
2023-03-01T04:41:44.382Z,101135.63
2023-03-01T04:44:11.993Z,101145.19
2023-03-01T04:46:39.623Z,101134.81
2023-03-01T04:49:07.375Z,101146.09
2023-03-01T04:51:35.337Z,101140.84
2023-03-01T04:54:03.146Z,101146.09
2023-03-01T04:56:31.134Z,101154.72
2023-03-01T04:58:58.940Z,101154.75
2023-03-01T05:01:26.558Z,101146.09
2023-03-01T05:03:54.871Z,101144.38
2023-03-01T05:06:22.674Z,101151.31
2023-03-01T05:08:50.274Z,101148.69
2023-03-01T05:11:17.924Z,101146.13
2023-03-01T05:13:45.525Z,101141.78
2023-03-01T05:16:13.724Z,101144.38
2023-03-01T05:18:41.639Z,101140.06
2023-03-01T05:21:09.249Z,101133.97
2023-03-01T05:23:37.199Z,101130.53
2023-03-01T05:26:06.213Z,101129.66
2023-03-01T05:28:35.453Z,101118.38
2023-03-01T05:31:03.172Z,101125.31
2023-03-01T05:33:30.774Z,101125.31
2023-03-01T05:35:58.436Z,101118.41
2023-03-01T05:38:26.084Z,101134.84
2023-03-01T05:40:54.101Z,101122.72
2023-03-01T05:43:21.923Z,101140.94
2023-03-01T05:45:49.576Z,101131.41
2023-03-01T05:48:17.674Z,101132.22
2023-03-01T05:50:45.354Z,101127.94
2023-03-01T05:53:13.434Z,101132.25
2023-03-01T05:55:41.232Z,101134.84
2023-03-01T05:58:08.859Z,101139.19
2023-03-01T06:00:36.508Z,101133.97
2023-03-01T06:03:04.205Z,101120.13
2023-03-01T06:05:32.305Z,101127.94
2023-03-01T06:08:00.282Z,101129.66
2023-03-01T06:10:28.304Z,101132.28
2023-03-01T06:12:55.900Z,101131.41
2023-03-01T06:15:23.608Z,101136.59
2023-03-01T06:17:51.765Z,101145.25
2023-03-01T06:20:19.403Z,101136.59
2023-03-01T06:22:47.446Z,101143.53
2023-03-01T06:25:15.214Z,101137.47
2023-03-01T06:27:42.858Z,101139.19
2023-03-01T06:30:11.347Z,101138.34
2023-03-01T06:32:43.242Z,101132.25
2023-03-01T06:35:11.878Z,101134.00
2023-03-01T06:37:40.317Z,101134.84
2023-03-01T06:40:09.808Z,101125.31
2023-03-01T06:42:37.858Z,101118.41
2023-03-01T06:45:05.578Z,101119.25
2023-03-01T06:47:34.243Z,101110.56
2023-03-01T06:50:01.933Z,101116.63
2023-03-01T06:52:29.729Z,101112.31
2023-03-01T06:54:58.128Z,101108.81
2023-03-01T06:57:26.111Z,101115.72
2023-03-01T06:59:53.781Z,101117.44
2023-03-01T07:02:21.467Z,101115.69
2023-03-01T07:04:49.410Z,101126.97
2023-03-01T07:07:17.086Z,101115.66
2023-03-01T07:09:44.845Z,101105.25
2023-03-01T07:12:12.528Z,101109.53
2023-03-01T07:14:40.159Z,101107.75
2023-03-01T07:17:08.699Z,101115.53
2023-03-01T07:19:36.426Z,101107.69
2023-03-01T07:22:05.434Z,101105.03
2023-03-01T07:24:33.359Z,101107.56
2023-03-01T07:27:01.029Z,101103.19
2023-03-01T07:29:30.415Z,101101.34
2023-03-01T07:31:58.410Z,101088.22
2023-03-01T07:34:26.395Z,101083.81
2023-03-01T07:36:54.161Z,101076.69
2023-03-01T07:39:24.153Z,101082.56
2023-03-01T07:41:52.241Z,101070.03
2023-03-01T07:44:19.989Z,101065.34
2023-03-01T07:46:48.001Z,101068.50
2023-03-01T07:49:15.678Z,101063.09
2023-03-01T07:51:43.414Z,101069.13
2023-03-01T07:54:11.741Z,101070.78
2023-03-01T07:56:39.366Z,101074.00
2023-03-01T07:59:07.064Z,101070.81
2023-03-01T08:01:34.831Z,101071.03
2023-03-01T08:04:03.319Z,101067.72
2023-03-01T08:06:31.491Z,101066.25
2023-03-01T08:08:59.780Z,101060.47
2023-03-01T08:11:29.346Z,101059.91
2023-03-01T08:13:57.735Z,101069.03
2023-03-01T08:16:25.712Z,101062.38
2023-03-01T08:18:53.484Z,101056.63
2023-03-01T08:21:21.140Z,101055.31
2023-03-01T08:23:50.348Z,101048.09
2023-03-01T08:26:18.193Z,101051.47
2023-03-01T08:28:46.257Z,101048.75
2023-03-01T08:31:14.132Z,101039.94
2023-03-01T08:33:41.925Z,101041.75
2023-03-01T08:36:09.730Z,101044.34
2023-03-01T08:38:37.680Z,101043.25
2023-03-01T08:41:05.871Z,101036.69
2023-03-01T08:43:33.635Z,101034.16
2023-03-01T08:46:01.967Z,101037.63
2023-03-01T08:48:30.037Z,101038.59
2023-03-01T08:50:57.915Z,101039.00
2023-03-01T08:53:26.160Z,101044.63
2023-03-01T08:55:53.944Z,101046.34
2023-03-01T08:58:21.854Z,101038.00
2023-03-01T09:00:50.016Z,101029.53
2023-03-01T09:03:17.968Z,101022.16
2023-03-01T09:05:47.108Z,101017.81
2023-03-01T09:08:15.426Z,101021.06
2023-03-01T09:10:43.156Z,101025.78
2023-03-01T09:13:11.195Z,101024.59
2023-03-01T09:15:39.153Z,101023.41
2023-03-01T09:18:07.435Z,101019.44
2023-03-01T09:20:35.200Z,101011.84
2023-03-01T09:23:03.080Z,101016.31
2023-03-01T09:25:31.343Z,101005.50
2023-03-01T09:27:59.185Z,101011.22
2023-03-01T09:30:27.143Z,101006.56
2023-03-01T09:32:55.003Z,101003.91
2023-03-01T09:35:23.858Z,100987.34
2023-03-01T09:37:51.715Z,100982.38
2023-03-01T09:40:19.551Z,100984.28
2023-03-01T09:42:47.654Z,100976.28
2023-03-01T09:45:16.024Z,100977.03
2023-03-01T09:47:43.806Z,100978.81
2023-03-01T09:50:11.883Z,100976.28
2023-03-01T09:52:40.262Z,100975.44
2023-03-01T09:55:08.075Z,100974.47
2023-03-01T09:57:37.256Z,100979.25
2023-03-01T10:00:07.496Z,100977.19
2023-03-01T10:02:35.870Z,100977.69
2023-03-01T10:05:03.903Z,100973.75
2023-03-01T10:07:31.842Z,100975.97
2023-03-01T10:10:00.322Z,100977.94
2023-03-01T10:12:28.141Z,100966.41
2023-03-01T10:14:57.129Z,100962.38
2023-03-01T10:17:24.936Z,100959.09
2023-03-01T10:19:52.927Z,100958.13
2023-03-01T10:22:22.781Z,100948.75
2023-03-01T10:24:50.554Z,100942.09
2023-03-01T10:27:18.820Z,100928.75
2023-03-01T10:29:46.742Z,100921.22
2023-03-01T10:32:14.769Z,100918.75
2023-03-01T10:34:42.708Z,100898.97
2023-03-01T10:37:11.065Z,100904.69
2023-03-01T10:39:39.037Z,100895.47
2023-03-01T10:42:06.882Z,100890.84
2023-03-01T10:44:34.738Z,100886.41
2023-03-01T10:47:02.842Z,100891.31
2023-03-01T10:49:30.659Z,100889.44
2023-03-01T10:51:58.779Z,100888.16
2023-03-01T10:54:26.569Z,100889.59
2023-03-01T10:56:55.269Z,100871.56
2023-03-01T10:59:23.651Z,100867.53
2023-03-01T11:01:51.696Z,100870.06
2023-03-01T11:04:20.084Z,100868.56
2023-03-01T11:06:48.096Z,100865.81
2023-03-01T11:09:16.039Z,100852.69
2023-03-01T11:11:44.217Z,100861.31
2023-03-01T11:14:24.845Z,100855.84
2023-03-01T11:16:53.820Z,100856.97
2023-03-01T11:19:22.141Z,100856.47
2023-03-01T11:21:50.513Z,100854.06
2023-03-01T11:24:18.378Z,100844.56
2023-03-01T11:26:46.300Z,100849.19
2023-03-01T11:29:14.431Z,100854.47
2023-03-01T11:31:56.754Z,100852.09
2023-03-01T11:34:25.759Z,100849.50
2023-03-01T11:36:54.953Z,100853.44
2023-03-01T11:39:23.658Z,100854.56
2023-03-01T11:41:53.034Z,100845.56
2023-03-01T11:44:20.963Z,100850.69
2023-03-01T11:46:49.137Z,100849.34
2023-03-01T11:49:17.124Z,100845.50
2023-03-01T11:51:45.198Z,100845.00
2023-03-01T11:54:13.128Z,100836.78
2023-03-01T11:56:41.205Z,100847.13
2023-03-01T11:59:09.703Z,100842.59
2023-03-01T12:01:39.743Z,100834.47
2023-03-01T12:04:10.133Z,100828.94
2023-03-01T12:06:38.058Z,100823.81
2023-03-01T12:09:05.896Z,100818.03
2023-03-01T12:11:34.275Z,100816.63
2023-03-01T12:14:02.215Z,100815.63
2023-03-01T12:16:38.746Z,100820.88
2023-03-01T12:19:07.845Z,100814.03
2023-03-01T12:21:35.718Z,100807.13
2023-03-01T12:24:03.834Z,100809.03
2023-03-01T12:26:32.076Z,100804.72
2023-03-01T12:28:59.922Z,100800.63
2023-03-01T12:31:29.573Z,100806.69
2023-03-01T12:33:58.040Z,100807.16
2023-03-01T12:36:25.883Z,100798.53
2023-03-01T12:38:54.086Z,100803.47
2023-03-01T12:41:21.957Z,100797.69
2023-03-01T12:43:50.144Z,100792.72
2023-03-01T12:46:18.750Z,100805.00
2023-03-01T12:48:46.603Z,100799.34
2023-03-01T12:51:14.797Z,100797.03
2023-03-01T12:53:42.719Z,100796.28
2023-03-01T12:56:11.356Z,100810.44
2023-03-01T12:58:49.270Z,100804.66
2023-03-01T13:01:18.535Z,100793.38
2023-03-01T13:03:46.548Z,100799.47
2023-03-01T13:06:14.393Z,100795.56
2023-03-01T13:08:43.166Z,100790.91
2023-03-01T13:11:11.047Z,100786.34
2023-03-01T13:13:39.353Z,100782.94
2023-03-01T13:16:07.436Z,100798.09
2023-03-01T13:18:35.567Z,100790.63
2023-03-01T13:21:03.817Z,100790.41
2023-03-01T13:23:31.853Z,100785.84
2023-03-01T13:26:00.248Z,100785.19
2023-03-01T13:28:28.197Z,100789.25
2023-03-01T13:30:56.254Z,100794.75
2023-03-01T13:33:24.576Z,100781.34
2023-03-01T13:35:52.558Z,100791.50
2023-03-01T13:38:20.760Z,100792.28
2023-03-01T13:40:48.744Z,100784.66
2023-03-01T13:43:16.507Z,100793.44
2023-03-01T13:45:44.613Z,100791.56
2023-03-01T13:48:12.748Z,100786.56
2023-03-01T13:50:42.455Z,100780.56
2023-03-01T13:53:10.769Z,100775.63
2023-03-01T13:55:38.795Z,100772.19
2023-03-01T13:58:07.302Z,100768.66
2023-03-01T14:00:35.363Z,100760.47
2023-03-01T14:03:06.204Z,100763.81
2023-03-01T14:05:34.434Z,100759.91
2023-03-01T14:08:02.395Z,100748.22
2023-03-01T14:10:30.739Z,100748.69
2023-03-01T14:13:03.273Z,100742.31
2023-03-01T14:15:36.565Z,100739.53
2023-03-01T14:18:05.476Z,100742.00
2023-03-01T14:20:33.903Z,100734.84
2023-03-01T14:23:01.932Z,100734.63
2023-03-01T14:25:31.065Z,100733.16
2023-03-01T14:27:59.420Z,100726.53
2023-03-01T14:30:27.377Z,100720.09
2023-03-01T14:32:55.701Z,100717.69
2023-03-01T14:35:23.951Z,100722.56
2023-03-01T14:37:52.285Z,100720.53
2023-03-01T14:40:20.580Z,100704.38
2023-03-01T14:42:48.488Z,100706.78
2023-03-01T14:45:16.986Z,100711.63
2023-03-01T14:47:44.898Z,100709.50
2023-03-01T14:50:12.752Z,100705.47
2023-03-01T14:52:42.481Z,100704.00
2023-03-01T14:55:10.486Z,100706.91
2023-03-01T14:57:38.999Z,100694.97
2023-03-01T15:00:07.628Z,100708.41
2023-03-01T15:02:35.541Z,100698.25
2023-03-01T15:05:03.884Z,100679.91
2023-03-01T15:07:32.550Z,100678.59
2023-03-01T15:10:01.093Z,100680.63
2023-03-01T15:12:29.009Z,100675.31
2023-03-01T15:15:03.701Z,100671.56
2023-03-01T15:17:32.457Z,100661.56
2023-03-01T15:20:00.324Z,100664.16
2023-03-01T15:22:28.587Z,100655.78
2023-03-01T15:24:56.686Z,100648.34
2023-03-01T15:27:24.693Z,100650.59
2023-03-01T15:29:52.765Z,100641.47
2023-03-01T15:32:20.864Z,100644.13
2023-03-01T15:34:49.267Z,100638.16
2023-03-01T15:37:17.517Z,100630.19
2023-03-01T15:39:45.649Z,100630.22
2023-03-01T15:42:13.734Z,100627.06
2023-03-01T15:44:44.317Z,100629.81
2023-03-01T15:47:12.927Z,100621.53
2023-03-01T15:49:53.992Z,100626.91
2023-03-01T15:52:23.300Z,100625.81
2023-03-01T15:54:51.254Z,100628.16
2023-03-01T15:57:19.099Z,100631.19
2023-03-01T15:59:46.985Z,100630.91
2023-03-01T16:02:15.068Z,100642.34
2023-03-01T16:04:43.324Z,100646.34
2023-03-01T16:07:11.293Z,100651.19
2023-03-01T16:09:40.047Z,100656.44
2023-03-01T16:12:08.026Z,100657.41
2023-03-01T16:14:35.918Z,100655.28
2023-03-01T16:17:04.191Z,100659.03
2023-03-01T16:19:32.554Z,100655.56
2023-03-01T16:22:00.818Z,100653.53
2023-03-01T16:24:28.777Z,100663.63
2023-03-01T16:26:56.766Z,100668.19
2023-03-01T16:29:24.930Z,100668.25
2023-03-01T16:31:53.227Z,100659.41
2023-03-01T16:34:23.965Z,100661.94
2023-03-01T16:36:51.890Z,100661.78
2023-03-01T16:39:20.071Z,100664.28
2023-03-01T16:41:49.789Z,100664.94
2023-03-01T16:44:17.684Z,100659.25
2023-03-01T16:46:46.225Z,100656.19
2023-03-01T16:49:14.073Z,100661.94
2023-03-01T16:51:44.761Z,100665.97
2023-03-01T16:54:13.343Z,100668.13
2023-03-01T16:56:41.392Z,100667.59
2023-03-01T16:59:09.584Z,100674.25
2023-03-01T17:01:40.799Z,100673.00
2023-03-01T17:04:08.842Z,100677.91
2023-03-01T17:06:36.658Z,100681.00
2023-03-01T17:09:04.727Z,100686.66
2023-03-01T17:11:33.399Z,100683.50
2023-03-01T17:14:01.491Z,100685.69
2023-03-01T17:16:29.581Z,100679.09
2023-03-01T17:18:57.796Z,100684.75
2023-03-01T17:21:25.785Z,100689.34
2023-03-01T17:23:55.665Z,100687.84
2023-03-01T17:26:23.655Z,100687.28
2023-03-01T17:28:53.391Z,100694.59
2023-03-01T17:31:21.822Z,100695.78
2023-03-01T17:33:50.397Z,100695.97
2023-03-01T17:36:18.864Z,100687.50
2023-03-01T17:38:47.628Z,100693.88
2023-03-01T17:41:17.971Z,100698.53
2023-03-01T17:43:46.092Z,100699.63
2023-03-01T17:46:14.569Z,100698.00
2023-03-01T17:48:42.687Z,100701.78
2023-03-01T17:51:11.502Z,100709.88
2023-03-01T17:53:39.430Z,100705.72
2023-03-01T17:56:07.250Z,100708.56
2023-03-01T17:58:35.132Z,100707.88
2023-03-01T18:01:03.903Z,100702.75
2023-03-01T18:03:31.747Z,100709.03
2023-03-01T18:05:59.654Z,100702.19
2023-03-01T18:08:29.681Z,100702.31
2023-03-01T18:10:57.774Z,100713.03
2023-03-01T18:13:26.213Z,100714.09
2023-03-01T18:15:54.316Z,100714.25
2023-03-01T18:18:22.188Z,100709.16
2023-03-01T18:20:50.279Z,100702.38
2023-03-01T18:23:18.540Z,100700.78
2023-03-01T18:25:46.993Z,100707.09
2023-03-01T18:28:14.889Z,100695.75
2023-03-01T18:30:43.039Z,100697.72
2023-03-01T18:33:12.044Z,100692.50
2023-03-01T18:35:39.986Z,100692.63
2023-03-01T18:38:08.322Z,100690.97
2023-03-01T18:40:36.152Z,100697.28
2023-03-01T18:43:04.061Z,100699.22
2023-03-01T18:45:32.481Z,100693.25
2023-03-01T18:48:00.393Z,100687.25
2023-03-01T18:50:28.283Z,100689.16
2023-03-01T18:52:56.627Z,100685.88
2023-03-01T18:55:24.384Z,100688.59
2023-03-01T18:57:52.676Z,100688.84
2023-03-01T19:00:20.598Z,100687.34
2023-03-01T19:02:49.408Z,100680.69
2023-03-01T19:05:17.589Z,100686.25
2023-03-01T19:07:45.701Z,100674.19
2023-03-01T19:10:13.769Z,100685.72
2023-03-01T19:12:41.688Z,100684.97
2023-03-01T19:15:10.099Z,100693.00
2023-03-01T19:17:37.843Z,100683.44
2023-03-01T19:20:05.750Z,100685.19
2023-03-01T19:22:34.293Z,100680.81
2023-03-01T19:25:02.201Z,100679.09
2023-03-01T19:27:30.436Z,100675.56
2023-03-01T19:29:58.503Z,100674.69
2023-03-01T19:32:26.533Z,100672.13
2023-03-01T19:34:54.469Z,100673.94
2023-03-01T19:37:24.229Z,100678.38
2023-03-01T19:39:52.408Z,100681.03
2023-03-01T19:42:20.283Z,100674.06
2023-03-01T19:44:48.202Z,100677.59
2023-03-01T19:47:16.411Z,100668.88
2023-03-01T19:49:44.299Z,100671.59
2023-03-01T19:52:12.379Z,100674.25
2023-03-01T19:54:40.224Z,100676.09
2023-03-01T19:57:08.123Z,100677.00
2023-03-01T19:59:36.324Z,100677.00
2023-03-01T20:02:05.146Z,100683.97
2023-03-01T20:04:33.229Z,100680.41
2023-03-01T20:07:01.294Z,100677.69
2023-03-01T20:09:29.168Z,100675.88
2023-03-01T20:11:57.095Z,100674.09
2023-03-01T20:14:25.272Z,100670.63
2023-03-01T20:16:53.508Z,100675.88
2023-03-01T20:19:21.648Z,100673.31
2023-03-01T20:21:50.001Z,100668.09
2023-03-01T20:24:18.559Z,100671.69
2023-03-01T20:26:46.386Z,100680.56
2023-03-01T20:29:14.867Z,100679.84
2023-03-01T20:31:42.892Z,100681.78
2023-03-01T20:34:10.955Z,100680.19
2023-03-01T20:36:41.218Z,100677.63
2023-03-01T20:39:09.920Z,100675.13
2023-03-01T20:41:37.807Z,100676.09
2023-03-01T20:44:06.930Z,100684.94
2023-03-01T20:46:35.053Z,100679.00
2023-03-01T20:49:03.666Z,100679.25
2023-03-01T20:51:31.711Z,100679.28
2023-03-01T20:53:59.909Z,100682.03
2023-03-01T20:56:28.523Z,100686.47
2023-03-01T20:58:56.435Z,100685.66
2023-03-01T21:01:24.902Z,100686.72
2023-03-01T21:03:52.840Z,100685.97
2023-03-01T21:06:21.704Z,100677.28
2023-03-01T21:08:49.651Z,100678.09
2023-03-01T21:11:18.561Z,100674.53
2023-03-01T21:13:46.961Z,100676.25
2023-03-01T21:16:14.914Z,100673.59
2023-03-01T21:18:43.299Z,100677.09
2023-03-01T21:21:11.298Z,100679.72
2023-03-01T21:23:39.079Z,100679.75
2023-03-01T21:26:06.947Z,100675.47
2023-03-01T21:28:34.898Z,100675.59
2023-03-01T21:31:03.047Z,100668.84
2023-03-01T21:33:30.972Z,100672.50
2023-03-01T21:35:59.007Z,100667.41
2023-03-01T21:38:28.847Z,100669.16
2023-03-01T21:40:56.801Z,100661.31
2023-03-01T21:43:24.768Z,100660.50
2023-03-01T21:45:52.582Z,100658.91
2023-03-01T21:48:20.879Z,100662.50
2023-03-01T21:50:51.313Z,100668.56
2023-03-01T21:53:19.160Z,100658.91
2023-03-01T21:55:47.451Z,100662.41
2023-03-01T21:58:15.556Z,100659.91
2023-03-01T22:00:43.423Z,100661.81
2023-03-01T22:03:11.252Z,100659.41
2023-03-01T22:05:39.111Z,100667.41
2023-03-01T22:08:07.337Z,100667.66
2023-03-01T22:10:35.543Z,100666.91
2023-03-01T22:13:03.353Z,100666.22
2023-03-01T22:15:31.302Z,100666.31
2023-03-01T22:17:59.191Z,100667.25
2023-03-01T22:20:27.538Z,100670.91
2023-03-01T22:22:55.401Z,100664.06
2023-03-01T22:25:23.222Z,100672.91
2023-03-01T22:27:51.293Z,100677.44
2023-03-01T22:30:19.221Z,100670.56
2023-03-01T22:32:47.812Z,100668.03
2023-03-01T22:35:15.683Z,100665.47
2023-03-01T22:37:43.513Z,100666.28
2023-03-01T22:40:11.549Z,100669.63
2023-03-01T22:42:39.462Z,100665.94
2023-03-01T22:45:07.590Z,100666.75
2023-03-01T22:47:36.085Z,100657.03
2023-03-01T22:50:04.011Z,100651.72
2023-03-01T22:52:31.827Z,100651.50
2023-03-01T22:55:00.037Z,100648.75
2023-03-01T22:57:28.354Z,100646.97
2023-03-01T22:59:56.229Z,100655.63
2023-03-01T23:02:25.548Z,100650.28
2023-03-01T23:04:54.369Z,100644.16
2023-03-01T23:07:23.623Z,100641.53
2023-03-01T23:09:51.738Z,100638.00
2023-03-01T23:12:19.548Z,100646.66
2023-03-01T23:14:47.364Z,100636.16
2023-03-01T23:17:16.564Z,100635.22
2023-03-01T23:19:44.313Z,100635.16
2023-03-01T23:22:12.367Z,100639.50
2023-03-01T23:24:40.077Z,100635.09
2023-03-01T23:27:07.888Z,100637.69
2023-03-01T23:29:35.836Z,100641.22
2023-03-01T23:32:03.654Z,100639.41
2023-03-01T23:34:31.901Z,100637.69
2023-03-01T23:36:59.561Z,100635.03
2023-03-01T23:39:27.771Z,100634.91
2023-03-01T23:41:55.608Z,100633.97
2023-03-01T23:44:23.324Z,100634.75
2023-03-01T23:46:51.383Z,100637.38
2023-03-01T23:49:19.104Z,100633.84
2023-03-01T23:51:47.874Z,100632.19
2023-03-01T23:54:15.826Z,100643.59
2023-03-01T23:56:43.725Z,100632.28
2023-03-01T23:59:12.470Z,100638.50
